Saint Peters, Prince Edward Island

3:21 PM AST on February 10, 2016 (GMT -0400)
Dingwells Mills | | Change Station
CLOSE
Current Station
Personal Weather Station
Location: Saint Peters Bay, PRINCE EDWARD ISLAND
Elevation: 26 ft
Nearby Weather Stations

Elev 26 ft 46.36 °N, 62.43 °W | Updated 22 seconds ago

Mostly Cloudy
Mostly Cloudy
31.4 °F
Feels Like 26 °F
N
6.0
Wind Variable Wind from WSW
Gusts 16.0 mph

Today is forecast to be nearly the same temperature as yesterday.

Today
High -- | Low -- °F
--% Chance of Precip.
Yesterday
High -- | Low -- °F
Precip. -- in
Pressure 29.56 in
Visibility 15.0 miles
Clouds Mostly Cloudy 2500 ft
Windchill 26 °F
Dew Point 23 °F
Humidity 70%
Rainfall 0.00 in
Snow Depth Not available.
7:22 AM 5:27 PM
Waxing Crescent, 7% visible
METAR CYYG 101900Z 24008KT 15SM BKN025 M03/M08 A2955 RMK SC7 SLP010
Pressure 29.56 in
Visibility 15.0 miles
Clouds Mostly Cloudy 2500 ft
Windchill 26 °F
Dew Point 23 °F
Humidity 70%
Rainfall 0.00 in
Snow Depth Not available.
7:22 AM 5:27 PM
Waxing Crescent, 7% visible
METAR CYYG 101900Z 24008KT 15SM BKN025 M03/M08 A2955 RMK SC7 SLP010

10-Day Weather Forecast

No radar image for this location.
×

Almanac

Astronomy

Feb. 10, 2016 Rise Set
Actual Time
Civil Twilight
Nautical Twilight
Astronomical Twilight
Moon
Length of Visible Light
Length of Day
Tomorrow will be .
, % of the Moon is Illuminated

Today's Extremes

Country Highs Country Lows

Community

WunderPhotos

Upload Photos

1,891,922 photos uploaded!

WunderBlog® & News

Nearby

Air Quality

  Air Quality AQ Index Pollutant
Not available.

Snow Depth

Station Depth Elevation

Earthquake Activity

City Distance Mag. Time & Date
Minimum magnitude displayed is 2.5.

Coastal Water Temperatures

Place Temperature

Stations

Nearby Weather Stations

Station Location Temp. Windchill Dew Point Humidity Wind Precip. Elev Updated Type
                   

Watches & Warnings

There are currently no watches in effect.